Time;durP1;ratioP1;P1;durP2;ratioP2;P2;SDS_P1;SDS_P2;PMS_P1;PMS_P2;Temp;Humidity;BMP_temperature;BMP_pressure;BME280_temperature;BME280_humidity;BME280_pressure;Samples;Min_cycle;Max_cycle;Signal;HPM_P1;HPM_P2
2022/01/12 00:01:39;;;;;;;7.75;4.97;;;1.10;99.90;;;;;;5030828;28;20489;-68
2022/01/12 00:04:05;;;;;;;5.15;4.65;;;1.10;99.90;;;;;;5031450;28;20032;-68
2022/01/12 00:06:31;;;;;;;6.22;4.95;;;1.00;99.90;;;;;;5031790;28;20036;-67
2022/01/12 00:08:59;;;;;;;7.43;5.38;;;1.00;99.90;;;;;;5033888;28;20083;-67
2022/01/12 00:11:25;;;;;;;6.45;5.28;;;1.00;99.90;;;;;;5033200;28;20389;-67
2022/01/12 00:13:52;;;;;;;6.95;5.15;;;1.00;99.90;;;;;;5039323;28;20025;-68
2022/01/12 00:16:19;;;;;;;7.10;5.32;;;1.00;99.90;;;;;;5031659;28;20129;-67
2022/01/12 00:18:45;;;;;;;7.07;5.35;;;0.90;99.90;;;;;;5030865;28;20505;-67
2022/01/12 00:21:12;;;;;;;5.72;4.82;;;0.90;99.90;;;;;;5029831;28;20041;-68
2022/01/12 00:23:39;;;;;;;7.80;5.88;;;0.90;99.90;;;;;;5031903;28;20028;-67
2022/01/12 00:26:24;;;;;;;7.35;5.43;;;0.80;99.90;;;;;;5032366;28;20063;-68
2022/01/12 00:34:28;;;;;;;8.45;5.07;;;0.70;99.90;;;;;;5011711;28;20401;-67
2022/01/12 00:36:54;;;;;;;9.43;4.85;;;0.70;99.90;;;;;;5031127;28;20036;-68
2022/01/12 00:39:20;;;;;;;7.55;4.93;;;0.70;99.90;;;;;;5029878;28;20025;-68
2022/01/12 00:41:46;;;;;;;7.65;5.20;;;0.70;99.90;;;;;;5031159;28;20053;-67
2022/01/12 00:44:21;;;;;;;6.53;5.00;;;0.70;99.90;;;;;;5031021;28;20056;-67
2022/01/12 00:46:47;;;;;;;7.25;4.90;;;0.60;99.90;;;;;;5023056;28;20033;-67
2022/01/12 00:49:13;;;;;;;5.55;4.65;;;0.60;99.90;;;;;;5030130;28;20108;-68
2022/01/12 00:51:39;;;;;;;6.68;4.90;;;0.60;99.90;;;;;;5030736;28;20473;-67
2022/01/12 00:54:06;;;;;;;5.47;4.68;;;0.60;99.90;;;;;;5031121;28;20025;-67
2022/01/12 00:56:32;;;;;;;6.00;4.65;;;0.60;99.90;;;;;;5030001;28;20025;-68
2022/01/12 00:58:58;;;;;;;5.65;4.53;;;0.60;99.90;;;;;;5028622;28;20029;-67
2022/01/12 01:01:24;;;;;;;6.93;5.10;;;0.50;99.90;;;;;;5031018;28;20052;-68
2022/01/12 01:03:51;;;;;;;6.60;5.18;;;0.50;99.90;;;;;;5030811;28;20473;-67
2022/01/12 01:06:18;;;;;;;7.32;5.10;;;0.50;99.90;;;;;;5031226;28;20043;-68
2022/01/12 01:08:44;;;;;;;6.15;5.00;;;0.50;99.90;;;;;;5041613;28;20026;-67
2022/01/12 01:11:10;;;;;;;6.90;4.80;;;0.50;99.90;;;;;;5020110;28;20021;-67
2022/01/12 01:13:48;;;;;;;7.45;5.25;;;0.50;99.90;;;;;;5030710;28;20060;-68
2022/01/12 01:16:21;;;;;;;8.43;5.55;;;0.40;99.90;;;;;;5030682;28;20052;-68
2022/01/12 01:27:00;;;;;;;9.15;5.38;;;0.30;99.90;;;;;;5031101;28;20044;-68
2022/01/12 01:29:26;;;;;;;6.63;4.88;;;0.30;99.90;;;;;;5030123;28;20184;-68
2022/01/12 01:31:52;;;;;;;8.45;5.35;;;0.30;99.90;;;;;;5029462;28;20830;-67
2022/01/12 01:34:18;;;;;;;7.13;5.00;;;0.30;99.90;;;;;;5030666;28;20079;-68
2022/01/12 01:36:46;;;;;;;6.78;4.90;;;0.30;99.90;;;;;;5044828;28;20048;-68
2022/01/12 01:39:15;;;;;;;6.72;4.60;;;0.20;99.90;;;;;;5026470;28;20037;-67
2022/01/12 01:41:45;;;;;;;7.85;5.15;;;0.20;99.90;;;;;;5026226;28;20088;-68
2022/01/12 01:54:54;;;;;;;7.50;5.05;;;0.10;99.90;;;;;;5034500;28;20089;-68
2022/01/12 01:57:20;;;;;;;6.93;5.13;;;0.10;99.90;;;;;;5036995;28;20029;-68
2022/01/12 01:59:46;;;;;;;7.45;5.10;;;0.10;99.90;;;;;;5031522;28;20067;-68
2022/01/12 02:02:15;;;;;;;8.02;5.50;;;0.10;99.90;;;;;;5029197;28;20037;-68
2022/01/12 02:04:40;;;;;;;7.25;5.35;;;0.10;99.90;;;;;;5029665;28;20049;-68
2022/01/12 02:07:06;;;;;;;7.03;5.15;;;0.00;99.90;;;;;;5028569;28;20064;-67
2022/01/12 02:09:34;;;;;;;5.95;4.97;;;0.00;99.90;;;;;;5029458;28;20029;-67
2022/01/12 02:12:01;;;;;;;6.90;4.88;;;0.00;99.90;;;;;;5028654;28;20053;-67
2022/01/12 02:14:28;;;;;;;10.55;5.32;;;0.00;99.90;;;;;;5026793;28;20528;-67
2022/01/12 02:17:04;;;;;;;7.82;5.38;;;0.00;99.90;;;;;;5029545;28;20045;-68
2022/01/12 02:41:22;;;;;;;9.38;5.45;;;-0.10;99.90;;;;;;5030674;28;20551;-67
2022/01/12 02:54:42;;;;;;;7.82;5.55;;;-0.20;99.90;;;;;;5032847;28;20013;-67
2022/01/12 02:57:08;;;;;;;8.25;5.95;;;-0.20;99.90;;;;;;5028092;28;20017;-68
2022/01/12 02:59:34;;;;;;;7.97;5.28;;;-0.30;99.90;;;;;;5028189;28;20464;-67
2022/01/12 03:04:29;;;;;;;7.82;5.20;;;-0.30;99.90;;;;;;5030376;28;20566;-67
2022/01/12 03:07:04;;;;;;;7.13;5.32;;;-0.20;99.90;;;;;;5028631;28;20029;-68
2022/01/12 03:09:29;;;;;;;7.53;5.45;;;-0.30;99.90;;;;;;5028189;28;20117;-67
2022/01/12 03:11:55;;;;;;;6.22;4.93;;;-0.30;99.90;;;;;;5029944;28;20439;-67
2022/01/12 03:14:20;;;;;;;6.20;5.18;;;-0.30;99.90;;;;;;5033370;28;20461;-67
2022/01/12 03:16:46;;;;;;;6.93;5.00;;;-0.30;99.90;;;;;;5028051;28;20025;-68
2022/01/12 03:19:12;;;;;;;9.98;5.35;;;-0.30;99.90;;;;;;5028396;28;20342;-68
2022/01/12 03:21:37;;;;;;;7.93;5.40;;;-0.30;99.90;;;;;;5028292;28;20037;-67
2022/01/12 03:24:03;;;;;;;8.23;5.30;;;-0.30;99.90;;;;;;5028391;28;20035;-68
2022/01/12 03:26:33;;;;;;;13.30;5.22;;;-0.30;99.90;;;;;;5028527;28;20516;-67
2022/01/12 03:28:59;;;;;;;6.95;5.38;;;-0.40;99.90;;;;;;5027280;28;20079;-67
2022/01/12 03:31:29;;;;;;;7.88;5.47;;;-0.40;99.90;;;;;;5028440;28;20025;-67
2022/01/12 03:34:41;;;;;;;8.20;5.78;;;-0.40;99.90;;;;;;5028218;28;20030;-67
2022/01/12 03:39:29;;;;;;;8.27;5.70;;;-0.50;99.90;;;;;;5029760;28;20160;-67
2022/01/12 03:41:55;;;;;;;7.22;5.65;;;-0.40;99.90;;;;;;5028539;28;20112;-67
2022/01/12 03:44:21;;;;;;;7.50;5.97;;;-0.50;99.90;;;;;;5028167;28;20048;-67
2022/01/12 03:46:50;;;;;;;7.45;5.30;;;-0.50;99.90;;;;;;5028250;28;20029;-67
2022/01/12 03:49:16;;;;;;;7.78;5.55;;;-0.50;99.90;;;;;;5027703;28;20112;-68
2022/01/12 03:51:43;;;;;;;9.57;6.20;;;-0.50;99.90;;;;;;5035270;28;20064;-67
2022/01/12 03:54:09;;;;;;;8.07;6.05;;;-0.50;99.90;;;;;;5028140;28;20047;-67
2022/01/12 03:56:35;;;;;;;7.85;5.78;;;-0.50;99.90;;;;;;5048474;28;20116;-68
2022/01/12 03:59:02;;;;;;;8.23;6.07;;;-0.50;99.90;;;;;;5030651;28;20623;-67
2022/01/12 04:01:28;;;;;;;7.88;5.57;;;-0.50;99.90;;;;;;5031593;28;20473;-67
2022/01/12 04:09:10;;;;;;;8.98;6.35;;;-0.40;99.90;;;;;;5031573;28;20075;-67
2022/01/12 04:11:36;;;;;;;9.73;5.97;;;-0.40;99.90;;;;;;5032056;28;20124;-68
2022/01/12 04:14:03;;;;;;;8.02;6.05;;;-0.50;99.90;;;;;;5031617;28;20037;-67
2022/01/12 04:16:28;;;;;;;7.43;5.40;;;-0.50;99.90;;;;;;5031741;28;20052;-68
2022/01/12 04:18:54;;;;;;;8.25;5.80;;;-0.50;99.90;;;;;;5030870;28;20022;-67
2022/01/12 04:21:27;;;;;;;9.43;6.38;;;-0.50;99.90;;;;;;5031798;28;20029;-67
2022/01/12 04:23:52;;;;;;;7.93;5.70;;;-0.60;99.90;;;;;;5031271;28;20049;-67
2022/01/12 04:26:18;;;;;;;13.30;6.18;;;-0.70;99.90;;;;;;5031117;28;20108;-67
2022/01/12 04:28:44;;;;;;;10.77;6.60;;;-0.70;99.90;;;;;;5043124;28;20207;-67
2022/01/12 04:31:11;;;;;;;8.85;6.03;;;-0.70;99.90;;;;;;5030977;28;20028;-67
2022/01/12 04:33:38;;;;;;;8.55;6.25;;;-0.60;99.90;;;;;;5044672;28;20512;-67
2022/01/12 04:36:05;;;;;;;10.15;6.30;;;-0.70;99.90;;;;;;5041745;28;20495;-68
2022/01/12 04:38:33;;;;;;;7.65;5.72;;;-0.70;99.90;;;;;;5030063;28;20040;-67
2022/01/12 04:41:04;;;;;;;12.23;6.20;;;-0.60;99.90;;;;;;5031448;28;20132;-68
2022/01/12 04:43:31;;;;;;;8.52;6.13;;;-0.70;99.90;;;;;;5031325;28;20065;-68
2022/01/12 04:46:10;;;;;;;7.90;5.72;;;-0.70;99.90;;;;;;5032822;28;20034;-67
2022/01/12 04:51:04;;;;;;;9.27;5.40;;;-0.70;99.90;;;;;;5032216;28;20021;-67
2022/01/12 04:53:31;;;;;;;9.50;6.07;;;-0.80;99.90;;;;;;5031188;28;20048;-67
2022/01/12 04:55:57;;;;;;;8.52;5.97;;;-0.80;99.90;;;;;;5033353;28;20033;-67
2022/01/12 04:58:23;;;;;;;9.60;6.18;;;-0.90;99.90;;;;;;5033692;28;20057;-67
2022/01/12 05:00:52;;;;;;;10.10;6.18;;;-0.90;99.90;;;;;;5030753;28;20061;-67
2022/01/12 05:13:59;;;;;;;9.35;6.20;;;-0.80;99.90;;;;;;5031931;28;20037;-67
2022/01/12 05:16:25;;;;;;;9.52;6.32;;;-0.80;99.90;;;;;;5030325;28;20394;-67
2022/01/12 05:18:54;;;;;;;9.30;6.03;;;-0.80;99.90;;;;;;5044921;28;20029;-67
2022/01/12 05:21:23;;;;;;;8.63;5.68;;;-0.80;99.90;;;;;;5029346;28;20028;-67
2022/01/12 05:23:49;;;;;;;7.35;5.70;;;-0.80;99.90;;;;;;5030200;28;20045;-67
2022/01/12 05:26:15;;;;;;;10.30;6.20;;;-0.80;99.90;;;;;;5030515;28;20108;-67
2022/01/12 05:28:41;;;;;;;10.65;6.25;;;-0.80;99.90;;;;;;5029117;28;20128;-67
2022/01/12 05:31:09;;;;;;;8.90;6.25;;;-0.80;99.90;;;;;;5030064;28;20024;-67
2022/01/12 05:33:36;;;;;;;10.45;6.45;;;-0.80;99.90;;;;;;5030311;28;20025;-67
2022/01/12 05:36:04;;;;;;;9.15;6.38;;;-0.80;99.90;;;;;;5034011;28;20439;-67
2022/01/12 05:38:30;;;;;;;7.60;5.88;;;-0.70;99.90;;;;;;5027717;28;20036;-66
2022/01/12 05:41:00;;;;;;;9.70;6.28;;;-0.80;99.90;;;;;;5030620;28;20354;-67
2022/01/12 05:43:29;;;;;;;10.10;6.63;;;-0.80;99.90;;;;;;5029763;28;20033;-67
2022/01/12 05:46:08;;;;;;;9.02;6.53;;;-0.80;99.90;;;;;;5028015;28;20350;-65
2022/01/12 05:51:19;;;;;;;11.07;7.38;;;-0.90;99.90;;;;;;5034156;28;20066;-68
2022/01/12 05:53:44;;;;;;;8.50;6.30;;;-0.90;99.90;;;;;;5029678;28;20026;-67
2022/01/12 05:56:10;;;;;;;11.00;6.93;;;-0.90;99.90;;;;;;5030059;28;20018;-67
2022/01/12 05:58:36;;;;;;;9.65;6.40;;;-0.90;99.90;;;;;;5025575;28;20025;-68
2022/01/12 06:01:01;;;;;;;9.65;6.25;;;-0.90;99.90;;;;;;5030288;28;20033;-67
2022/01/12 06:03:27;;;;;;;8.95;6.05;;;-0.90;99.90;;;;;;5030307;28;20030;-67
2022/01/12 06:05:53;;;;;;;8.27;5.78;;;-0.90;99.90;;;;;;5029463;28;20405;-68
2022/01/12 06:08:19;;;;;;;8.52;6.05;;;-0.90;99.90;;;;;;5036776;28;20164;-67
2022/01/12 06:10:44;;;;;;;9.10;6.20;;;-0.90;99.90;;;;;;5029010;28;20032;-67
2022/01/12 06:13:10;;;;;;;8.48;5.85;;;-0.80;99.90;;;;;;5029219;28;20029;-68
2022/01/12 06:15:36;;;;;;;10.70;6.22;;;-0.90;99.90;;;;;;5026457;28;20025;-70
2022/01/12 06:18:01;;;;;;;9.90;6.07;;;-0.90;99.90;;;;;;5040938;28;20075;-67
2022/01/12 06:20:27;;;;;;;8.23;6.07;;;-0.90;99.90;;;;;;5032212;28;20562;-67
2022/01/12 06:22:53;;;;;;;8.82;6.20;;;-1.00;99.90;;;;;;5029276;28;20079;-67
2022/01/12 06:27:56;;;;;;;8.35;6.32;;;-1.00;99.90;;;;;;5025309;28;20425;-64
2022/01/12 06:32:54;;;;;;;12.15;7.10;;;-1.20;99.90;;;;;;5031278;28;20039;-67
2022/01/12 06:35:20;;;;;;;10.10;6.75;;;-1.20;99.90;;;;;;5013054;28;20029;-65
2022/01/12 06:37:46;;;;;;;10.60;6.70;;;-1.30;99.90;;;;;;5010768;28;20025;-65
2022/01/12 06:40:14;;;;;;;13.77;7.40;;;-1.30;99.90;;;;;;5009266;28;20029;-64
2022/01/12 06:42:40;;;;;;;11.68;6.70;;;-1.30;99.90;;;;;;4993803;28;20033;-64
2022/01/12 06:45:06;;;;;;;9.60;6.90;;;-1.30;99.90;;;;;;4992694;28;20021;-64
2022/01/12 06:47:32;;;;;;;12.93;7.47;;;-1.30;99.90;;;;;;4993207;28;20493;-65
2022/01/12 06:49:58;;;;;;;13.27;7.07;;;-1.30;99.90;;;;;;5013221;28;20030;-65
2022/01/12 06:52:24;;;;;;;14.18;7.93;;;-1.40;99.90;;;;;;5009200;28;20024;-66
2022/01/12 06:54:49;;;;;;;15.05;8.45;;;-1.40;99.90;;;;;;5007817;28;20058;-68
2022/01/12 06:57:17;;;;;;;12.50;7.35;;;-1.40;99.90;;;;;;5009589;28;20499;-67
2022/01/12 06:59:42;;;;;;;13.43;8.32;;;-1.40;99.90;;;;;;5012357;28;20087;-65
2022/01/12 07:02:08;;;;;;;12.50;7.55;;;-1.40;99.90;;;;;;5013190;28;20033;-65
2022/01/12 07:04:34;;;;;;;11.75;7.45;;;-1.40;99.90;;;;;;4996873;28;20699;-66
2022/01/12 07:06:59;;;;;;;11.07;6.97;;;-1.40;99.90;;;;;;4994195;28;20125;-66
2022/01/12 07:09:25;;;;;;;12.00;7.90;;;-1.40;99.90;;;;;;4993577;28;20527;-67
2022/01/12 07:11:51;;;;;;;14.18;9.20;;;-1.40;99.90;;;;;;4994178;28;20034;-69
2022/01/12 07:14:16;;;;;;;13.25;8.88;;;-1.30;99.90;;;;;;5004650;28;20416;-69
2022/01/12 07:16:42;;;;;;;15.65;9.05;;;-1.30;99.90;;;;;;4995154;28;20029;-68
2022/01/12 07:19:08;;;;;;;15.40;8.55;;;-1.20;99.90;;;;;;4993187;28;20034;-68
2022/01/12 07:21:34;;;;;;;13.70;8.75;;;-1.10;99.90;;;;;;5005820;28;20034;-68
2022/01/12 07:23:59;;;;;;;12.55;7.53;;;-1.10;99.90;;;;;;5013756;28;20509;-68
2022/01/12 07:26:25;;;;;;;14.73;8.82;;;-1.00;99.90;;;;;;5006841;28;20045;-68
2022/01/12 07:28:53;;;;;;;13.80;8.30;;;-1.00;99.90;;;;;;4999109;28;20497;-68
2022/01/12 07:31:19;;;;;;;11.88;8.00;;;-1.00;99.90;;;;;;5000851;28;20030;-69
2022/01/12 07:33:44;;;;;;;14.10;8.85;;;-0.90;99.90;;;;;;4997712;28;20025;-68
2022/01/12 07:36:10;;;;;;;13.35;8.45;;;-0.80;99.90;;;;;;5011224;28;20071;-68
2022/01/12 07:38:36;;;;;;;13.05;8.25;;;-0.80;99.90;;;;;;5000845;28;20037;-69
2022/01/12 07:41:01;;;;;;;15.55;8.98;;;-0.70;99.90;;;;;;5003532;28;20030;-69
2022/01/12 07:43:30;;;;;;;13.52;8.00;;;-0.70;99.90;;;;;;4996231;28;20434;-70
2022/01/12 07:45:56;;;;;;;11.18;7.45;;;-0.60;99.90;;;;;;5007369;28;20029;-68
2022/01/12 07:48:21;;;;;;;9.95;7.03;;;-0.50;99.90;;;;;;4999803;28;20517;-69
2022/01/12 07:50:47;;;;;;;12.70;7.07;;;-0.50;99.90;;;;;;5013340;28;20126;-69
2022/01/12 07:53:13;;;;;;;17.52;7.90;;;-0.40;99.90;;;;;;5013467;28;20120;-69
2022/01/12 07:55:38;;;;;;;15.02;8.10;;;-0.30;99.90;;;;;;4995681;28;20398;-69
2022/01/12 07:58:04;;;;;;;11.63;7.30;;;-0.20;99.90;;;;;;5013101;28;20034;-68
2022/01/12 08:00:30;;;;;;;11.52;8.30;;;-0.20;99.90;;;;;;4996403;28;20026;-69
2022/01/12 08:02:55;;;;;;;12.50;8.25;;;-0.20;99.90;;;;;;4997904;28;20037;-69
2022/01/12 08:05:21;;;;;;;11.20;7.47;;;-0.20;99.90;;;;;;5002713;28;20025;-68
2022/01/12 08:07:48;;;;;;;14.90;8.63;;;-0.20;99.90;;;;;;4997475;28;20034;-68
2022/01/12 08:10:14;;;;;;;14.93;9.10;;;-0.20;99.90;;;;;;5000831;28;20022;-70
2022/01/12 08:12:40;;;;;;;17.83;8.98;;;-0.20;99.90;;;;;;5015516;28;20099;-69
2022/01/12 08:15:08;;;;;;;14.55;9.23;;;-0.20;99.90;;;;;;5011751;28;20058;-69
2022/01/12 08:17:35;;;;;;;12.73;8.52;;;-0.20;99.90;;;;;;4996925;28;20026;-69
2022/01/12 08:20:02;;;;;;;14.90;9.18;;;-0.20;99.90;;;;;;4994068;28;20088;-69
2022/01/12 08:22:28;;;;;;;14.38;9.40;;;-0.20;99.90;;;;;;4997293;28;20040;-69
2022/01/12 08:24:54;;;;;;;12.05;8.88;;;-0.30;99.90;;;;;;5013541;28;20393;-69
2022/01/12 08:27:20;;;;;;;12.38;8.82;;;-0.20;99.90;;;;;;4996210;28;20025;-68
2022/01/12 08:29:46;;;;;;;13.25;9.32;;;-0.20;99.90;;;;;;4996691;28;20494;-68
2022/01/12 08:32:12;;;;;;;12.48;8.80;;;-0.20;99.90;;;;;;5018250;28;20129;-69
2022/01/12 08:34:37;;;;;;;16.05;8.63;;;-0.20;99.90;;;;;;4996291;28;20433;-70
2022/01/12 08:37:03;;;;;;;12.13;8.43;;;-0.20;99.90;;;;;;5012545;28;20025;-69
2022/01/12 08:39:29;;;;;;;12.25;8.85;;;-0.20;99.90;;;;;;4994998;28;20080;-69
2022/01/12 08:41:55;;;;;;;13.68;9.52;;;-0.20;99.90;;;;;;4993908;28;20030;-69
2022/01/12 08:44:21;;;;;;;15.75;10.15;;;-0.20;99.90;;;;;;4992385;28;20474;-69
2022/01/12 08:46:46;;;;;;;19.58;10.50;;;-0.20;99.90;;;;;;4996132;28;20038;-68
2022/01/12 08:49:12;;;;;;;21.73;11.63;;;-0.20;99.90;;;;;;4995361;28;20048;-69
2022/01/12 08:51:38;;;;;;;18.25;11.10;;;-0.20;99.90;;;;;;4995986;28;20641;-69
2022/01/12 08:54:04;;;;;;;16.38;10.27;;;-0.10;99.90;;;;;;4995363;28;20029;-69
2022/01/12 08:56:30;;;;;;;17.83;10.80;;;-0.10;99.90;;;;;;4995274;28;20516;-67
2022/01/12 08:58:56;;;;;;;15.05;9.68;;;0.00;99.90;;;;;;5002692;28;20057;-67
2022/01/12 09:01:22;;;;;;;20.58;10.70;;;0.00;99.90;;;;;;4995972;28;20088;-67
2022/01/12 09:03:48;;;;;;;17.13;10.73;;;0.00;99.90;;;;;;5000391;28;20022;-69
2022/01/12 09:06:14;;;;;;;14.95;9.30;;;0.00;99.90;;;;;;4991242;28;20021;-67
2022/01/12 09:08:41;;;;;;;13.68;9.55;;;0.10;99.90;;;;;;5000036;28;20034;-69
2022/01/12 09:11:07;;;;;;;14.90;9.82;;;0.10;99.90;;;;;;4995732;28;20029;-69
2022/01/12 09:13:34;;;;;;;15.45;10.20;;;0.20;99.90;;;;;;4988564;28;20130;-69
2022/01/12 09:16:06;;;;;;;13.90;9.70;;;0.20;99.90;;;;;;4994200;28;20029;-66
2022/01/12 09:18:33;;;;;;;14.95;9.48;;;0.20;99.90;;;;;;4995311;28;20026;-67
2022/01/12 09:20:59;;;;;;;13.20;9.50;;;0.30;99.90;;;;;;4992459;28;20053;-67
2022/01/12 09:23:25;;;;;;;14.02;9.23;;;0.30;99.90;;;;;;4994968;28;20032;-66
2022/01/12 09:25:51;;;;;;;15.43;10.30;;;0.40;99.90;;;;;;4994720;28;20121;-70
2022/01/12 09:28:17;;;;;;;13.55;9.93;;;0.40;99.90;;;;;;4995803;28;20034;-67
2022/01/12 09:30:43;;;;;;;14.05;9.88;;;0.40;99.90;;;;;;4992724;28;20108;-67
2022/01/12 09:33:09;;;;;;;13.02;8.82;;;0.40;99.90;;;;;;4981071;28;20022;-67
2022/01/12 09:35:35;;;;;;;13.38;9.18;;;0.40;99.90;;;;;;4995048;28;20021;-70
2022/01/12 09:38:01;;;;;;;13.60;9.35;;;0.40;99.90;;;;;;4993344;28;20031;-66
2022/01/12 09:40:26;;;;;;;14.70;8.95;;;0.40;99.90;;;;;;4986126;28;20034;-66
2022/01/12 09:42:53;;;;;;;14.85;8.52;;;0.30;99.90;;;;;;5003662;28;20041;-67
2022/01/12 09:45:19;;;;;;;14.43;9.82;;;0.30;99.90;;;;;;4983331;28;20033;-68
2022/01/12 09:47:49;;;;;;;12.57;8.95;;;0.30;99.90;;;;;;5002587;28;20117;-67
2022/01/12 09:50:17;;;;;;;14.90;9.57;;;0.30;99.90;;;;;;4992152;28;20026;-67
2022/01/12 09:52:43;;;;;;;15.40;9.90;;;0.30;99.90;;;;;;4994541;28;20505;-67
2022/01/12 09:55:09;;;;;;;11.45;8.93;;;0.30;99.90;;;;;;4994313;28;20026;-67
2022/01/12 09:57:35;;;;;;;15.07;9.27;;;0.30;99.90;;;;;;4991919;28;20509;-67
2022/01/12 10:00:01;;;;;;;15.88;9.52;;;0.30;99.90;;;;;;5003281;28;20033;-69
2022/01/12 10:02:27;;;;;;;17.20;9.80;;;0.40;99.90;;;;;;4994417;28;20034;-66
2022/01/12 10:05:00;;;;;;;13.65;9.82;;;0.40;99.90;;;;;;4993886;28;20061;-65
2022/01/12 10:07:26;;;;;;;12.85;8.90;;;0.40;99.90;;;;;;4992654;28;20075;-70
2022/01/12 10:09:59;;;;;;;12.38;8.60;;;0.40;99.90;;;;;;4993698;28;20527;-69
2022/01/12 10:12:27;;;;;;;13.60;8.25;;;0.30;99.90;;;;;;4994221;28;20026;-65
2022/01/12 10:15:01;;;;;;;12.50;8.85;;;0.30;99.90;;;;;;4994131;28;20108;-67
2022/01/12 10:17:32;;;;;;;12.32;8.48;;;0.30;99.90;;;;;;4995250;28;20022;-67
2022/01/12 10:20:13;;;;;;;13.07;8.73;;;0.30;99.90;;;;;;4989695;28;20022;-67
2022/01/12 10:22:55;;;;;;;13.23;8.95;;;0.30;99.90;;;;;;4993324;28;20037;-66
2022/01/12 10:25:21;;;;;;;12.67;7.97;;;0.30;99.90;;;;;;5010249;28;20038;-65
2022/01/12 10:27:48;;;;;;;9.80;7.60;;;0.40;99.90;;;;;;4993636;28;20295;-69
2022/01/12 10:30:20;;;;;;;10.38;7.68;;;0.40;99.90;;;;;;5001907;28;20493;-68
2022/01/12 10:32:45;;;;;;;11.85;7.97;;;0.30;99.90;;;;;;4999553;28;20032;-67
2022/01/12 10:35:11;;;;;;;11.25;7.95;;;0.30;99.90;;;;;;5010652;28;20030;-65
2022/01/12 10:37:37;;;;;;;12.68;7.72;;;0.40;99.90;;;;;;5009481;28;20121;-67
2022/01/12 10:40:03;;;;;;;10.20;7.65;;;0.50;99.90;;;;;;4994443;28;20045;-67
2022/01/12 10:42:29;;;;;;;12.55;8.45;;;0.50;99.90;;;;;;5011485;28;20113;-69
2022/01/12 10:45:04;;;;;;;11.43;8.40;;;0.60;99.90;;;;;;4998737;28;20033;-69
2022/01/12 10:47:32;;;;;;;12.50;8.48;;;0.70;99.90;;;;;;4990347;28;20034;-65
2022/01/12 10:50:02;;;;;;;13.88;9.00;;;0.70;99.90;;;;;;4990178;28;20482;-66
2022/01/12 10:52:34;;;;;;;12.05;8.15;;;0.70;99.90;;;;;;4993685;28;20049;-66
2022/01/12 10:55:11;;;;;;;11.93;8.60;;;0.80;99.90;;;;;;5006060;28;20022;-67
2022/01/12 10:57:42;;;;;;;12.88;8.77;;;0.70;99.90;;;;;;4995631;28;20036;-69
2022/01/12 11:00:18;;;;;;;12.88;8.90;;;0.70;99.90;;;;;;4994362;28;20450;-68
2022/01/12 11:02:49;;;;;;;14.27;9.00;;;0.70;99.90;;;;;;4994453;28;20056;-68
2022/01/12 11:05:16;;;;;;;13.23;8.73;;;0.70;99.90;;;;;;4993157;28;20022;-68
2022/01/12 11:07:41;;;;;;;12.40;9.15;;;0.60;99.90;;;;;;5008113;28;20030;-68
2022/01/12 11:10:09;;;;;;;13.63;9.43;;;0.60;99.90;;;;;;4996594;28;20030;-66
2022/01/12 11:12:36;;;;;;;13.95;9.77;;;0.60;99.90;;;;;;4992855;28;20045;-64
2022/01/12 11:15:08;;;;;;;13.32;9.93;;;0.60;99.90;;;;;;5003081;28;20022;-65
2022/01/12 11:17:34;;;;;;;;;;;0.60;99.90;;;;;;4999496;28;20060;-67
2022/01/12 11:20:30;;;;;;;11.02;8.55;;;0.60;99.90;;;;;;4993190;28;19913;-67
2022/01/12 11:23:14;;;;;;;13.93;9.68;;;0.60;99.90;;;;;;4981301;28;20513;-67
2022/01/12 11:25:43;;;;;;;15.07;9.05;;;0.50;99.90;;;;;;4992704;28;20091;-67
2022/01/12 11:28:11;;;;;;;13.95;9.57;;;0.50;99.90;;;;;;4991777;28;20021;-67
2022/01/12 11:30:43;;;;;;;16.52;10.07;;;0.60;99.90;;;;;;4993621;28;20048;-69
2022/01/12 11:33:10;;;;;;;14.77;9.77;;;0.60;99.90;;;;;;5001019;28;20030;-67
2022/01/12 11:35:40;;;;;;;13.65;9.95;;;0.60;99.90;;;;;;4993774;28;20026;-67
2022/01/12 11:38:07;;;;;;;14.30;9.60;;;0.50;99.90;;;;;;5000563;28;20026;-67
2022/01/12 11:40:39;;;;;;;14.30;9.82;;;0.50;99.90;;;;;;4987153;28;20463;-67
2022/01/12 11:43:17;;;;;;;13.63;9.48;;;0.60;99.90;;;;;;4993779;28;20120;-67
2022/01/12 11:45:43;;;;;;;13.68;9.30;;;0.60;99.90;;;;;;5009816;28;20049;-67
2022/01/12 11:48:09;;;;;;;13.30;9.35;;;0.50;99.90;;;;;;4993116;28;20049;-68
2022/01/12 11:50:35;;;;;;;13.07;9.30;;;0.60;99.90;;;;;;4990569;28;20033;-67
2022/01/12 11:53:00;;;;;;;11.13;9.02;;;0.60;99.90;;;;;;4993562;28;20053;-67
2022/01/12 11:55:34;;;;;;;13.52;9.23;;;0.50;99.90;;;;;;4993728;28;20390;-67
2022/01/12 11:58:03;;;;;;;13.27;8.90;;;0.50;99.90;;;;;;4992483;28;20033;-67
2022/01/12 12:00:30;;;;;;;11.90;8.48;;;0.50;99.90;;;;;;4991310;28;20034;-68
2022/01/12 12:02:58;;;;;;;12.73;8.43;;;0.50;99.90;;;;;;4991590;28;20355;-68
2022/01/12 12:05:31;;;;;;;12.95;9.02;;;0.50;99.90;;;;;;4992182;28;20042;-67
2022/01/12 12:08:02;;;;;;;21.33;13.15;;;0.60;99.90;;;;;;4991014;28;20555;-68
2022/01/12 12:10:36;;;;;;;12.75;9.18;;;0.60;99.90;;;;;;4994901;28;20022;-66
2022/01/12 12:13:03;;;;;;;12.73;8.57;;;0.80;99.90;;;;;;4991597;28;20056;-66
2022/01/12 12:15:29;;;;;;;11.75;8.95;;;0.90;99.90;;;;;;4993369;28;20046;-68
2022/01/12 12:18:04;;;;;;;15.05;8.52;;;1.10;99.90;;;;;;4996566;28;20447;-68
2022/01/12 12:20:31;;;;;;;13.23;9.38;;;1.40;99.90;;;;;;5007029;28;20036;-68
2022/01/12 12:22:57;;;;;;;12.23;8.48;;;1.60;99.90;;;;;;5002207;28;20084;-66
2022/01/12 12:25:25;;;;;;;11.02;7.90;;;1.80;99.90;;;;;;5008070;28;20473;-66
2022/01/12 12:28:03;;;;;;;11.15;8.25;;;1.80;99.90;;;;;;5009015;28;20037;-67
2022/01/12 12:30:31;;;;;;;11.20;8.23;;;1.90;99.90;;;;;;4992396;28;20034;-67
2022/01/12 12:33:11;;;;;;;15.05;9.35;;;2.00;99.90;;;;;;5044417;23;20522;-68
2022/01/12 12:35:38;;;;;;;11.70;8.55;;;2.00;99.90;;;;;;5047562;28;20018;-68
2022/01/12 12:38:07;;;;;;;14.55;8.80;;;2.10;99.90;;;;;;5048510;28;20075;-69
2022/01/12 12:40:42;;;;;;;9.95;7.63;;;2.20;99.90;;;;;;5032801;28;20034;-68
2022/01/12 12:43:21;;;;;;;12.18;8.57;;;2.30;99.90;;;;;;5049167;28;20033;-68
2022/01/12 12:45:53;;;;;;;10.25;7.57;;;2.30;99.90;;;;;;5048923;28;20028;-69
2022/01/12 12:48:22;;;;;;;10.27;7.30;;;2.30;99.90;;;;;;5030907;28;20034;-69
2022/01/12 12:51:01;;;;;;;9.57;7.05;;;2.40;99.90;;;;;;5032084;28;20497;-70
2022/01/12 12:53:41;;;;;;;10.50;7.70;;;2.30;99.90;;;;;;5032576;28;20017;-69
2022/01/12 12:56:11;;;;;;;11.00;7.53;;;2.40;99.90;;;;;;5048988;28;20033;-69
2022/01/12 12:58:37;;;;;;;9.95;7.20;;;2.50;99.90;;;;;;5047427;28;20033;-69
2022/01/12 13:01:11;;;;;;;10.00;7.35;;;2.60;99.90;;;;;;5031895;28;20358;-69
2022/01/12 13:03:39;;;;;;;10.00;7.07;;;2.70;99.90;;;;;;5031809;28;20036;-68
2022/01/12 13:06:05;;;;;;;9.65;7.75;;;2.70;99.90;;;;;;5048770;28;20609;-71
2022/01/12 13:08:31;;;;;;;12.38;8.68;;;2.50;99.90;;;;;;5030548;28;20028;-71
2022/01/12 13:11:06;;;;;;;13.02;8.50;;;2.50;99.90;;;;;;5032120;28;20017;-71
2022/01/12 13:13:31;;;;;;;13.10;7.97;;;2.60;99.90;;;;;;5014986;28;20033;-70
2022/01/12 13:15:58;;;;;;;9.93;7.68;;;2.60;99.90;;;;;;5015296;28;20409;-70
2022/01/12 13:18:24;;;;;;;11.40;8.02;;;2.70;99.90;;;;;;5047509;28;20432;-70
2022/01/12 13:21:07;;;;;;;10.05;8.00;;;2.80;99.90;;;;;;5047877;28;20025;-70
2022/01/12 13:23:38;;;;;;;14.30;8.82;;;2.90;99.90;;;;;;5031825;28;20116;-70
2022/01/12 13:26:05;;;;;;;10.80;7.50;;;3.10;99.90;;;;;;5032944;28;20087;-70
2022/01/12 13:28:32;;;;;;;10.70;7.80;;;3.30;99.90;;;;;;5046915;28;20516;-70
2022/01/12 13:31:00;;;;;;;11.80;8.30;;;3.20;99.90;;;;;;5031976;28;20436;-69
2022/01/12 13:33:34;;;;;;;11.32;8.45;;;3.10;99.90;;;;;;5046826;28;20159;-70
2022/01/12 13:36:21;;;;;;;11.88;8.35;;;3.20;99.90;;;;;;5037570;28;20026;-70
2022/01/12 13:38:58;;;;;;;10.30;7.93;;;3.40;99.90;;;;;;5040151;28;20401;-71
2022/01/12 13:41:30;;;;;;;13.20;8.80;;;3.40;99.90;;;;;;5030691;28;20116;-71
2022/01/12 13:43:59;;;;;;;10.30;8.18;;;3.30;99.90;;;;;;5030747;28;20446;-71
2022/01/12 13:46:36;;;;;;;10.85;8.23;;;3.20;99.90;;;;;;5030241;28;20025;-70
2022/01/12 13:51:42;;;;;;;12.55;8.20;;;3.00;99.90;;;;;;5031811;28;20105;-70
2022/01/12 13:54:12;;;;;;;12.93;8.40;;;3.00;99.90;;;;;;5030520;28;20032;-71
2022/01/12 13:56:43;;;;;;;11.77;8.30;;;2.90;99.90;;;;;;5030161;28;20057;-70
2022/01/12 13:59:11;;;;;;;8.13;6.83;;;2.90;99.90;;;;;;5029584;28;20025;-70
2022/01/12 14:01:41;;;;;;;11.63;8.63;;;3.00;99.90;;;;;;5030018;28;20260;-70
2022/01/12 14:04:19;;;;;;;12.68;8.88;;;3.10;99.90;;;;;;5028981;28;20502;-70
2022/01/12 14:06:47;;;;;;;12.40;9.23;;;3.20;99.90;;;;;;5030018;28;20027;-70
2022/01/12 14:09:30;;;;;;;10.63;8.02;;;3.30;99.90;;;;;;5028516;28;20022;-71
2022/01/12 14:11:57;;;;;;;12.65;8.73;;;3.20;99.90;;;;;;5039303;28;20084;-70
2022/01/12 14:14:23;;;;;;;13.88;9.25;;;3.00;99.90;;;;;;5046612;28;20108;-69
2022/01/12 14:16:50;;;;;;;11.43;8.32;;;2.90;99.90;;;;;;5029708;28;20064;-69
2022/01/12 14:19:17;;;;;;;12.50;8.50;;;2.80;99.90;;;;;;5028452;28;20021;-72
2022/01/12 14:21:54;;;;;;;12.75;8.68;;;2.70;99.90;;;;;;5045667;28;20116;-69